Time;durP1;ratioP1;P1;durP2;ratioP2;P2;SDS_P1;SDS_P2;PMS_P1;PMS_P2;Temp;Humidity;BMP_temperature;BMP_pressure;BME280_temperature;BME280_humidity;BME280_pressure;Samples;Min_cycle;Max_cycle;Signal;HPM_P1;HPM_P2
2022/02/24 00:00:10;;;;;;;9.43;6.10;;;1.00;10.30;;;;;;5053089;28;20217;-61
2022/02/24 00:02:35;;;;;;;7.93;5.60;;;1.00;9.30;;;;;;5052172;28;20186;-61
2022/02/24 00:05:01;;;;;;;11.53;6.20;;;1.00;11.60;;;;;;5052497;28;20194;-61
2022/02/24 00:07:27;;;;;;;12.80;6.70;;;1.00;13.10;;;;;;5052618;28;20190;-61
2022/02/24 00:09:52;;;;;;;7.43;5.80;;;1.00;14.70;;;;;;5052030;28;20221;-62
2022/02/24 00:12:19;;;;;;;11.47;6.70;;;1.10;13.70;;;;;;5052591;28;20187;-62
2022/02/24 00:14:45;;;;;;;6.55;5.63;;;1.00;13.60;;;;;;5052598;28;20174;-62
2022/02/24 00:17:11;;;;;;;12.70;6.45;;;1.10;11.70;;;;;;5051442;28;20261;-61
2022/02/24 00:19:37;;;;;;;11.10;6.83;;;1.00;12.10;;;;;;5052621;28;20614;-62
2022/02/24 00:22:03;;;;;;;9.50;6.50;;;1.00;9.60;;;;;;5051424;28;20182;-61
2022/02/24 00:24:29;;;;;;;9.10;6.67;;;1.00;9.20;;;;;;5052221;28;20178;-62
2022/02/24 00:26:54;;;;;;;8.50;6.13;;;1.00;10.00;;;;;;5050499;28;20966;-62
2022/02/24 00:29:20;;;;;;;8.70;6.23;;;0.90;9.20;;;;;;5051750;28;20206;-62
2022/02/24 00:31:46;;;;;;;7.17;6.23;;;0.90;9.90;;;;;;5058352;28;20263;-62
2022/02/24 00:34:12;;;;;;;9.77;6.63;;;0.90;6.40;;;;;;5058020;28;20544;-61
2022/02/24 00:36:37;;;;;;;10.60;6.75;;;0.90;4.50;;;;;;5058272;28;20229;-63
2022/02/24 00:39:03;;;;;;;11.40;5.90;;;0.80;3.40;;;;;;5063422;28;20194;-62
2022/02/24 00:41:29;;;;;;;13.30;6.30;;;0.80;4.40;;;;;;5057817;28;20196;-61
2022/02/24 00:43:55;;;;;;;10.67;6.53;;;0.70;1.50;;;;;;5057719;28;20542;-62
2022/02/24 00:46:20;;;;;;;11.27;5.87;;;0.70;1.00;;;;;;5051240;28;20518;-62
2022/02/24 00:48:46;;;;;;;14.30;6.80;;;0.60;1.50;;;;;;5052641;28;20252;-62
2022/02/24 00:51:11;;;;;;;13.17;6.37;;;0.50;1.30;;;;;;5050922;28;20265;-61
2022/02/24 00:53:41;;;;;;;9.50;6.57;;;0.40;2.20;;;;;;5052032;28;20900;-62
2022/02/24 00:56:09;;;;;;;9.90;6.60;;;0.40;13.10;;;;;;5050651;28;20189;-62
2022/02/24 00:58:35;;;;;;;9.13;6.40;;;0.40;22.40;;;;;;5051237;28;20195;-63
2022/02/24 01:01:01;;;;;;;9.40;6.90;;;0.40;32.00;;;;;;5051566;28;20905;-62
2022/02/24 01:03:26;;;;;;;8.63;6.70;;;0.40;43.00;;;;;;5050687;28;20198;-62
2022/02/24 01:05:52;;;;;;;11.10;7.20;;;0.40;50.00;;;;;;5051719;28;20266;-61
2022/02/24 01:08:18;;;;;;;13.23;7.30;;;0.50;49.40;;;;;;5051263;28;20210;-57
2022/02/24 01:10:43;;;;;;;14.90;9.40;;;0.50;51.30;;;;;;5051141;28;20529;-62
2022/02/24 01:13:09;;;;;;;12.67;7.63;;;0.40;49.60;;;;;;5050775;28;20232;-61
2022/02/24 01:15:38;;;;;;;11.30;7.07;;;0.40;49.40;;;;;;5050208;28;20240;-62
2022/02/24 01:18:07;;;;;;;9.80;6.30;;;0.40;48.30;;;;;;5051353;28;20539;-62
2022/02/24 01:20:32;;;;;;;10.30;7.00;;;0.30;45.90;;;;;;5035056;28;20522;-62
2022/02/24 01:22:58;;;;;;;12.67;7.50;;;0.30;43.80;;;;;;5050197;28;20244;-61
2022/02/24 01:25:24;;;;;;;13.50;7.20;;;0.20;44.40;;;;;;5051013;28;20182;-61
2022/02/24 01:27:52;;;;;;;10.48;6.57;;;0.20;46.50;;;;;;5047744;28;20293;-61
2022/02/24 01:30:18;;;;;;;10.43;6.20;;;0.10;46.60;;;;;;5049779;28;20185;-62
2022/02/24 01:32:44;;;;;;;12.80;7.32;;;0.10;46.60;;;;;;5049249;28;20187;-61
2022/02/24 01:35:10;;;;;;;12.90;6.97;;;0.00;47.80;;;;;;5051275;28;20196;-61
2022/02/24 01:37:36;;;;;;;10.07;7.43;;;0.00;49.20;;;;;;5049157;28;20182;-61
2022/02/24 01:40:02;;;;;;;12.17;6.80;;;0.00;50.70;;;;;;5050496;28;20437;-61
2022/02/24 01:42:29;;;;;;;9.80;6.80;;;0.00;49.70;;;;;;5050106;28;20179;-61
2022/02/24 01:44:54;;;;;;;10.88;7.30;;;0.00;50.30;;;;;;5051083;28;20625;-61
2022/02/24 01:47:20;;;;;;;12.80;7.90;;;-0.10;52.20;;;;;;5052872;28;20231;-62
2022/02/24 01:49:46;;;;;;;9.73;7.27;;;-0.20;54.70;;;;;;5049589;28;20198;-62
2022/02/24 01:52:13;;;;;;;8.47;6.70;;;-0.10;57.80;;;;;;5051347;28;20191;-61
2022/02/24 01:54:40;;;;;;;10.85;6.72;;;-0.10;58.90;;;;;;5049577;28;20201;-61
2022/02/24 01:57:06;;;;;;;14.82;6.65;;;-0.10;60.40;;;;;;5043036;28;20261;-61
2022/02/24 01:59:32;;;;;;;10.85;7.00;;;-0.20;63.90;;;;;;5050231;28;20273;-61
2022/02/24 02:01:58;;;;;;;9.97;6.63;;;-0.30;64.80;;;;;;5055183;28;20277;-61
2022/02/24 02:04:24;;;;;;;10.10;6.40;;;-0.30;63.80;;;;;;5049801;28;20186;-61
2022/02/24 02:06:50;;;;;;;10.88;6.90;;;-0.40;64.20;;;;;;5059028;28;20503;-61
2022/02/24 02:09:17;;;;;;;14.70;6.53;;;-0.40;64.70;;;;;;5053873;28;20250;-61
2022/02/24 02:11:43;;;;;;;8.85;5.97;;;-0.50;65.30;;;;;;5051506;28;20167;-61
2022/02/24 02:14:10;;;;;;;8.10;6.07;;;-0.50;67.60;;;;;;5050930;28;20182;-61
2022/02/24 02:16:35;;;;;;;10.35;6.57;;;-0.60;69.50;;;;;;5051808;28;20186;-61
2022/02/24 02:19:01;;;;;;;9.50;6.10;;;-0.60;76.80;;;;;;5045492;28;20209;-62
2022/02/24 02:21:31;;;;;;;10.15;6.22;;;-0.60;80.20;;;;;;5049071;28;20174;-62
2022/02/24 02:23:56;;;;;;;7.93;6.00;;;-0.70;82.50;;;;;;5050387;28;20277;-62
2022/02/24 02:26:22;;;;;;;9.43;6.40;;;-0.70;85.60;;;;;;5049526;28;20319;-60
2022/02/24 02:28:48;;;;;;;14.13;6.77;;;-0.70;90.10;;;;;;5047828;28;20199;-62
2022/02/24 02:31:18;;;;;;;8.47;6.10;;;-0.60;91.90;;;;;;5050192;28;20170;-62
2022/02/24 02:33:43;;;;;;;11.15;6.38;;;-0.60;91.10;;;;;;5047699;28;20603;-62
2022/02/24 02:36:09;;;;;;;11.53;6.53;;;-0.70;89.50;;;;;;5054565;28;20186;-62
2022/02/24 02:38:34;;;;;;;9.27;6.53;;;-0.80;87.50;;;;;;5049818;28;20197;-61
2022/02/24 02:41:00;;;;;;;11.87;7.10;;;-0.60;90.60;;;;;;5042671;28;20174;-61
2022/02/24 02:43:25;;;;;;;8.43;6.47;;;-0.60;87.00;;;;;;5061768;28;20194;-61
2022/02/24 02:45:51;;;;;;;9.00;6.27;;;-0.70;88.30;;;;;;5048869;28;20183;-61
2022/02/24 02:48:17;;;;;;;9.33;6.50;;;-0.70;87.70;;;;;;5052912;28;20209;-61
2022/02/24 02:50:43;;;;;;;11.18;6.60;;;-0.80;89.10;;;;;;5052052;28;20194;-61
2022/02/24 02:53:09;;;;;;;10.57;7.70;;;-0.80;88.30;;;;;;5049710;28;20663;-62
2022/02/24 02:55:34;;;;;;;12.20;6.70;;;-0.90;87.90;;;;;;5049975;28;20631;-57
2022/02/24 02:58:00;;;;;;;15.07;7.77;;;-0.90;90.10;;;;;;5049367;28;20276;-61
2022/02/24 03:00:26;;;;;;;10.47;6.67;;;-1.00;87.10;;;;;;5049376;28;20181;-61
2022/02/24 03:02:52;;;;;;;10.47;6.97;;;-1.00;89.30;;;;;;5048782;28;20184;-61
2022/02/24 03:05:17;;;;;;;12.70;7.67;;;-1.10;90.00;;;;;;5048965;28;20464;-61
2022/02/24 03:07:43;;;;;;;12.80;6.53;;;-1.10;90.30;;;;;;5049148;28;20185;-61
2022/02/24 03:10:09;;;;;;;11.40;6.90;;;-1.20;90.50;;;;;;5049578;28;20253;-59
2022/02/24 03:12:36;;;;;;;10.55;7.25;;;-1.20;92.50;;;;;;5049466;28;20202;-61
2022/02/24 03:15:15;;;;;;;13.27;7.72;;;-1.30;94.70;;;;;;5047160;28;20604;-61
2022/02/24 03:17:43;;;;;;;9.45;6.95;;;-1.20;97.20;;;;;;5048640;28;20193;-60
2022/02/24 03:20:09;;;;;;;10.73;7.18;;;-1.20;98.20;;;;;;5049515;28;20194;-63
2022/02/24 03:22:34;;;;;;;10.35;6.82;;;-1.20;99.20;;;;;;5047540;28;20228;-61
2022/02/24 03:25:00;;;;;;;13.70;7.53;;;-1.20;99.10;;;;;;5049611;28;21878;-61
2022/02/24 03:27:26;;;;;;;13.30;7.50;;;-1.30;99.60;;;;;;5048315;28;20240;-61
2022/02/24 03:29:51;;;;;;;15.70;7.80;;;-1.20;99.20;;;;;;5046664;28;20672;-61
2022/02/24 03:32:17;;;;;;;13.50;7.27;;;-1.20;99.80;;;;;;5047794;28;20191;-61
2022/02/24 03:34:44;;;;;;;11.53;7.00;;;-1.30;99.90;;;;;;5050533;28;20166;-61
2022/02/24 03:37:10;;;;;;;13.93;7.80;;;-1.30;99.90;;;;;;5054892;28;20632;-61
2022/02/24 03:39:35;;;;;;;13.17;7.60;;;-1.30;99.90;;;;;;5060959;28;20269;-62
2022/02/24 03:42:01;;;;;;;13.00;7.37;;;-1.30;99.90;;;;;;5053418;28;20485;-61
2022/02/24 03:44:26;;;;;;;11.80;6.83;;;-1.30;99.90;;;;;;5056931;28;20197;-62
2022/02/24 03:46:52;;;;;;;8.00;6.47;;;-1.30;99.90;;;;;;5048657;28;20254;-60
2022/02/24 03:49:17;;;;;;;12.87;7.27;;;-1.30;99.90;;;;;;5049345;28;20737;-58
2022/02/24 03:51:43;;;;;;;9.90;6.87;;;-1.30;99.90;;;;;;5048270;28;20570;-61
2022/02/24 03:54:09;;;;;;;12.13;7.27;;;-1.30;99.00;;;;;;5049047;28;20222;-61
2022/02/24 03:56:34;;;;;;;16.23;7.67;;;-1.40;99.20;;;;;;5049319;28;20579;-61
2022/02/24 03:59:00;;;;;;;13.70;7.50;;;-1.40;98.80;;;;;;5048827;28;20186;-63
2022/02/24 04:01:26;;;;;;;9.70;7.47;;;-1.40;99.10;;;;;;5051717;28;20193;-62
2022/02/24 04:03:51;;;;;;;10.03;7.53;;;-1.50;99.00;;;;;;5052602;28;20417;-61
2022/02/24 04:06:17;;;;;;;14.20;8.37;;;-1.50;99.00;;;;;;5052848;28;20183;-61
2022/02/24 04:08:43;;;;;;;9.23;7.07;;;-1.60;99.30;;;;;;5052528;28;20313;-61
2022/02/24 04:11:08;;;;;;;11.30;7.20;;;-1.60;99.90;;;;;;5052810;28;20625;-61
2022/02/24 04:13:34;;;;;;;15.60;8.53;;;-1.60;99.90;;;;;;5051609;28;20186;-62
2022/02/24 04:16:00;;;;;;;13.23;7.77;;;-1.60;99.90;;;;;;5052385;28;20529;-61
2022/02/24 04:18:25;;;;;;;19.50;7.63;;;-1.50;99.90;;;;;;5052693;28;20183;-62
2022/02/24 04:20:51;;;;;;;11.30;8.50;;;-1.50;99.90;;;;;;5052060;28;20178;-61
2022/02/24 04:23:16;;;;;;;12.63;7.50;;;-1.40;99.90;;;;;;5052801;28;20171;-62
2022/02/24 04:25:42;;;;;;;14.17;7.93;;;-1.40;99.90;;;;;;5053349;28;20774;-61
2022/02/24 04:28:07;;;;;;;13.67;8.63;;;-1.30;99.90;;;;;;5045262;28;20201;-62
2022/02/24 04:30:33;;;;;;;12.13;7.70;;;-1.40;99.90;;;;;;5053590;28;20210;-58
2022/02/24 04:32:59;;;;;;;12.07;8.50;;;-1.30;99.90;;;;;;5056306;28;20667;-62
2022/02/24 04:35:24;;;;;;;12.30;8.00;;;-1.30;99.90;;;;;;5050200;28;20218;-61
2022/02/24 04:37:50;;;;;;;12.80;7.87;;;-1.30;99.90;;;;;;5065532;28;20253;-62
2022/02/24 04:40:15;;;;;;;13.63;7.63;;;-1.20;99.90;;;;;;5051441;28;20182;-62
2022/02/24 04:42:42;;;;;;;10.00;7.03;;;-1.20;99.90;;;;;;5047441;28;20182;-62
2022/02/24 04:45:07;;;;;;;12.13;6.70;;;-1.10;99.90;;;;;;5052763;28;20985;-63
2022/02/24 04:47:33;;;;;;;10.07;6.90;;;-1.10;99.90;;;;;;5051738;28;20212;-62
2022/02/24 04:49:59;;;;;;;13.43;7.73;;;-1.00;99.90;;;;;;5052285;28;20526;-61
2022/02/24 04:52:24;;;;;;;13.80;8.03;;;-0.90;99.90;;;;;;5060210;28;20555;-63
2022/02/24 04:54:50;;;;;;;10.50;7.60;;;-0.90;99.90;;;;;;5055274;28;20643;-64
2022/02/24 04:57:15;;;;;;;12.83;8.07;;;-0.80;99.90;;;;;;5050722;28;20293;-62
2022/02/24 04:59:41;;;;;;;10.73;7.70;;;-0.80;99.90;;;;;;5047084;28;20194;-62
2022/02/24 05:02:06;;;;;;;13.87;8.53;;;-0.60;99.90;;;;;;5050916;28;20252;-61
2022/02/24 05:04:32;;;;;;;15.67;9.70;;;-0.50;99.90;;;;;;5038937;28;20624;-62
2022/02/24 05:07:00;;;;;;;14.97;8.80;;;-0.40;99.90;;;;;;5050728;28;20241;-61
2022/02/24 05:09:26;;;;;;;12.35;7.43;;;-0.40;99.90;;;;;;5050302;28;20232;-63
2022/02/24 05:11:52;;;;;;;15.03;8.20;;;-0.40;99.90;;;;;;5049776;28;20190;-64
2022/02/24 05:14:18;;;;;;;12.90;7.53;;;-0.30;99.90;;;;;;5053070;28;20222;-62
2022/02/24 05:16:44;;;;;;;14.65;8.60;;;-0.30;99.20;;;;;;5051568;28;20265;-62
2022/02/24 05:19:10;;;;;;;15.20;8.67;;;-0.30;97.50;;;;;;5043295;28;20569;-62
2022/02/24 05:21:36;;;;;;;15.10;8.83;;;-0.30;96.00;;;;;;5045220;28;20437;-62
2022/02/24 05:24:02;;;;;;;11.90;8.30;;;-0.30;95.40;;;;;;5048621;28;20505;-63
2022/02/24 05:26:27;;;;;;;12.83;7.97;;;-0.30;94.40;;;;;;5047002;28;20186;-61
2022/02/24 05:28:53;;;;;;;24.77;9.10;;;-0.30;94.80;;;;;;5044194;28;20457;-62
2022/02/24 05:31:19;;;;;;;15.93;8.97;;;-0.20;94.50;;;;;;5051121;28;20175;-63
2022/02/24 05:33:44;;;;;;;11.73;8.07;;;-0.10;92.70;;;;;;5059841;28;20193;-62
2022/02/24 05:36:10;;;;;;;13.53;8.40;;;-0.10;91.30;;;;;;5053197;28;20255;-62
2022/02/24 05:38:35;;;;;;;13.50;8.80;;;-0.10;90.80;;;;;;5058990;28;20193;-62
2022/02/24 05:41:01;;;;;;;11.70;8.77;;;-0.10;89.50;;;;;;5057296;28;20201;-62
2022/02/24 05:43:27;;;;;;;11.00;7.68;;;-0.10;86.80;;;;;;5049650;28;20277;-62
2022/02/24 05:45:55;;;;;;;11.55;7.60;;;-0.10;86.20;;;;;;5050756;28;20189;-62
2022/02/24 05:48:20;;;;;;;11.43;7.97;;;-0.10;85.50;;;;;;5049632;28;20672;-64
2022/02/24 05:50:46;;;;;;;13.70;8.40;;;-0.10;85.70;;;;;;5049911;28;20159;-64
2022/02/24 05:53:11;;;;;;;13.80;7.73;;;0.00;89.20;;;;;;5049421;28;20218;-62
2022/02/24 05:55:37;;;;;;;14.70;7.87;;;0.10;90.50;;;;;;5050859;28;20178;-64
2022/02/24 05:58:03;;;;;;;13.00;8.17;;;0.20;88.50;;;;;;5049551;28;20189;-56
2022/02/24 06:00:29;;;;;;;11.57;7.33;;;0.30;88.30;;;;;;5051505;28;20182;-62
2022/02/24 06:02:54;;;;;;;11.50;8.50;;;0.50;85.10;;;;;;5062245;28;20181;-63
2022/02/24 06:05:20;;;;;;;13.67;7.87;;;0.60;82.60;;;;;;5051960;28;20429;-63
2022/02/24 06:07:46;;;;;;;15.90;8.80;;;0.70;76.50;;;;;;5051663;28;20554;-63
2022/02/24 06:10:12;;;;;;;14.43;9.50;;;0.70;67.80;;;;;;5050905;28;20454;-63
2022/02/24 06:12:38;;;;;;;14.52;8.55;;;0.80;61.90;;;;;;5049143;28;20790;-63
2022/02/24 06:15:06;;;;;;;13.97;7.63;;;1.00;55.90;;;;;;5050450;28;20198;-63
2022/02/24 06:17:31;;;;;;;11.27;7.82;;;1.10;52.20;;;;;;5050899;28;20265;-63
2022/02/24 06:19:57;;;;;;;11.03;8.03;;;1.10;47.30;;;;;;5051094;28;20305;-63
2022/02/24 06:22:22;;;;;;;12.83;7.77;;;1.30;37.80;;;;;;5046167;28;20174;-62
2022/02/24 06:24:50;;;;;;;12.97;7.50;;;1.40;32.50;;;;;;5040065;28;20492;-63
2022/02/24 06:27:16;;;;;;;11.35;7.22;;;1.50;23.40;;;;;;5051343;28;20652;-63
2022/02/24 06:29:42;;;;;;;10.60;6.70;;;1.50;21.20;;;;;;5049358;28;20221;-64
2022/02/24 06:32:07;;;;;;;12.57;6.87;;;1.60;19.20;;;;;;5058490;28;20505;-63
2022/02/24 06:34:33;;;;;;;10.90;7.13;;;1.70;15.50;;;;;;5058854;28;20545;-63
2022/02/24 06:36:58;;;;;;;11.07;7.23;;;1.70;10.20;;;;;;5070526;28;20189;-62
2022/02/24 06:39:24;;;;;;;11.77;6.37;;;1.80;5.70;;;;;;5055073;28;20186;-62
2022/02/24 06:41:50;;;;;;;12.27;7.17;;;1.90;2.30;;;;;;5054305;28;20200;-63
2022/02/24 06:44:16;;;;;;;13.93;7.10;;;2.00;1.00;;;;;;5063374;28;20236;-63
2022/02/24 06:46:42;;;;;;;10.00;6.83;;;2.00;1.00;;;;;;5045994;28;20195;-62
2022/02/24 06:49:07;;;;;;;9.33;6.97;;;2.10;1.00;;;;;;5057391;28;20244;-61
2022/02/24 06:51:33;;;;;;;9.60;7.13;;;2.30;1.00;;;;;;5054513;28;20222;-61
2022/02/24 06:53:59;;;;;;;10.93;8.30;;;2.30;1.00;;;;;;5053921;28;20240;-61
2022/02/24 06:56:24;;;;;;;11.53;7.00;;;2.40;1.00;;;;;;5049178;28;20195;-61
2022/02/24 06:58:51;;;;;;;11.23;6.57;;;2.50;1.00;;;;;;5049099;28;20617;-62
2022/02/24 07:01:17;;;;;;;12.63;6.72;;;2.50;1.00;;;;;;5049496;28;20248;-61
2022/02/24 07:03:43;;;;;;;9.98;6.95;;;2.60;1.00;;;;;;5050117;28;20173;-62
2022/02/24 07:06:09;;;;;;;12.33;6.80;;;2.70;1.00;;;;;;5049268;28;20182;-62
2022/02/24 07:08:34;;;;;;;10.65;7.30;;;2.70;1.00;;;;;;5049213;28;20248;-62
2022/02/24 07:11:00;;;;;;;9.03;6.67;;;2.80;1.00;;;;;;5046803;28;20589;-61
2022/02/24 07:13:26;;;;;;;12.50;6.93;;;2.90;1.00;;;;;;5049595;28;20186;-60
2022/02/24 07:15:51;;;;;;;12.37;6.37;;;3.00;1.00;;;;;;5046662;28;20777;-61
2022/02/24 07:18:17;;;;;;;11.40;7.00;;;3.10;1.00;;;;;;5049355;28;20178;-62
2022/02/24 07:20:42;;;;;;;9.53;6.83;;;3.20;1.00;;;;;;5048313;28;20204;-60
2022/02/24 07:23:08;;;;;;;7.93;5.83;;;3.30;1.00;;;;;;5045927;28;20718;-62
2022/02/24 07:25:33;;;;;;;9.50;6.33;;;3.40;1.00;;;;;;5048766;28;20269;-62
2022/02/24 07:27:59;;;;;;;9.43;6.10;;;3.40;1.00;;;;;;5051690;28;20196;-61
2022/02/24 07:30:24;;;;;;;9.47;6.30;;;3.50;1.00;;;;;;5044099;28;20178;-61
2022/02/24 07:32:50;;;;;;;11.90;6.40;;;3.60;1.00;;;;;;5047112;28;20597;-62
2022/02/24 07:35:16;;;;;;;8.80;6.17;;;3.70;1.00;;;;;;5046728;28;20182;-61
2022/02/24 07:37:41;;;;;;;9.17;6.37;;;3.80;1.00;;;;;;5052434;28;20179;-60
2022/02/24 07:40:07;;;;;;;7.70;6.10;;;3.80;1.00;;;;;;5051006;28;20185;-60
2022/02/24 07:42:34;;;;;;;9.15;5.90;;;4.00;1.00;;;;;;5052878;28;20178;-60
2022/02/24 07:45:01;;;;;;;11.43;5.78;;;4.10;1.00;;;;;;5049738;28;20182;-62
2022/02/24 07:47:26;;;;;;;11.35;7.00;;;4.20;1.00;;;;;;5052562;28;20163;-59
2022/02/24 07:49:52;;;;;;;8.20;6.43;;;4.30;1.00;;;;;;5052573;28;20719;-60
2022/02/24 07:52:17;;;;;;;9.50;5.90;;;4.50;1.00;;;;;;5051610;28;20183;-60
2022/02/24 07:54:43;;;;;;;8.80;5.40;;;4.60;99.90;;;;;;5052402;28;20205;-60
2022/02/24 07:57:08;;;;;;;8.30;5.60;;;4.80;99.90;;;;;;5049698;28;20187;-61
2022/02/24 07:59:34;;;;;;;12.63;5.80;;;5.10;99.90;;;;;;5050435;28;20637;-60
2022/02/24 08:02:00;;;;;;;10.90;5.93;;;5.30;99.90;;;;;;5050047;28;20224;-62
2022/02/24 08:04:25;;;;;;;9.40;5.80;;;5.50;1.00;;;;;;5051119;28;20167;-60
2022/02/24 08:06:51;;;;;;;7.33;5.27;;;5.70;93.40;;;;;;5050101;28;20527;-57
2022/02/24 08:09:17;;;;;;;8.20;6.10;;;6.00;99.90;;;;;;5052038;28;20201;-61
2022/02/24 08:12:38;;;;;;;6.80;4.77;;;6.20;1.00;;;;;;5047526;28;20209;-62
2022/02/24 08:14:28;;;;;;;9.80;5.70;;;6.50;1.00;;;;;;5050353;28;20182;-61
2022/02/24 08:16:53;;;;;;;7.43;5.83;;;6.90;99.90;;;;;;5052717;28;20229;-62
2022/02/24 08:19:19;;;;;;;6.07;5.47;;;7.30;89.90;;;;;;5055068;28;20291;-62
2022/02/24 08:21:44;;;;;;;7.50;5.93;;;7.70;1.00;;;;;;5053772;28;20213;-61
2022/02/24 08:24:10;;;;;;;6.60;5.30;;;8.20;99.90;;;;;;5051139;28;20273;-61
2022/02/24 08:26:35;;;;;;;10.27;5.97;;;8.90;1.00;;;;;;5048092;28;20547;-60
2022/02/24 08:29:01;;;;;;;7.40;6.00;;;9.50;1.00;;;;;;5054064;28;20289;-61
2022/02/24 08:31:26;;;;;;;8.90;6.33;;;10.00;1.00;;;;;;5059896;28;20178;-61
2022/02/24 08:33:54;;;;;;;7.50;6.70;;;10.50;1.00;;;;;;5058662;28;20170;-61
2022/02/24 08:36:19;;;;;;;7.20;6.47;;;11.10;1.00;;;;;;5053465;28;20261;-60
2022/02/24 08:38:45;;;;;;;6.90;6.27;;;11.50;1.00;;;;;;5050697;28;20508;-61
2022/02/24 08:41:11;;;;;;;6.93;6.23;;;11.90;99.90;;;;;;5050564;28;20179;-61
2022/02/24 08:43:36;;;;;;;6.80;6.20;;;12.10;99.90;;;;;;5050099;28;20178;-61
2022/02/24 08:46:02;;;;;;;6.50;5.90;;;12.50;99.90;;;;;;5051330;28;20217;-61
2022/02/24 08:48:27;;;;;;;7.83;7.13;;;13.00;99.90;;;;;;5049663;28;20217;-61
2022/02/24 08:50:53;;;;;;;7.00;6.30;;;13.40;99.90;;;;;;5053457;28;20185;-61
2022/02/24 08:53:19;;;;;;;7.30;6.67;;;13.50;99.90;;;;;;5058187;28;20238;-58
2022/02/24 08:55:44;;;;;;;7.17;6.47;;;14.00;99.90;;;;;;5050030;28;20647;-61
2022/02/24 08:58:10;;;;;;;6.70;6.13;;;14.70;99.90;;;;;;5060900;28;20883;-61
2022/02/24 09:00:36;;;;;;;6.77;6.17;;;15.10;99.90;;;;;;5049670;28;20182;-61
2022/02/24 09:03:03;;;;;;;7.97;6.73;;;15.50;99.90;;;;;;5053332;28;20659;-60
2022/02/24 09:05:28;;;;;;;8.00;6.17;;;15.50;99.90;;;;;;5067770;28;20430;-61
2022/02/24 09:07:54;;;;;;;7.03;6.43;;;15.70;99.90;;;;;;5064056;28;20414;-61
2022/02/24 09:10:19;;;;;;;6.90;6.10;;;16.10;99.90;;;;;;5067730;28;20181;-61
2022/02/24 09:12:45;;;;;;;7.80;6.30;;;16.20;99.90;;;;;;5051129;28;20220;-60
2022/02/24 09:15:10;;;;;;;6.83;6.20;;;16.60;99.90;;;;;;5050661;28;20193;-59
2022/02/24 09:17:36;;;;;;;6.50;5.90;;;16.70;99.90;;;;;;5051681;28;20515;-60
2022/02/24 09:20:03;;;;;;;6.43;5.93;;;17.00;99.90;;;;;;5048791;28;20180;-61
2022/02/24 09:22:28;;;;;;;5.67;5.10;;;17.10;99.90;;;;;;5045704;28;20258;-61
2022/02/24 09:24:54;;;;;;;6.77;6.10;;;17.00;99.90;;;;;;5050132;28;20511;-60
2022/02/24 09:27:19;;;;;;;6.00;5.50;;;16.60;99.90;;;;;;5049690;28;20188;-61
2022/02/24 09:29:45;;;;;;;5.47;4.97;;;16.60;99.90;;;;;;5051925;28;20197;-60
2022/02/24 09:32:10;;;;;;;5.60;5.10;;;16.50;99.90;;;;;;5052716;28;20181;-61
2022/02/24 09:34:37;;;;;;;5.80;5.30;;;16.30;99.90;;;;;;5049978;28;20178;-61
2022/02/24 09:37:03;;;;;;;5.50;5.07;;;16.50;99.90;;;;;;5051015;28;20284;-61
2022/02/24 09:39:29;;;;;;;5.30;4.90;;;16.30;99.90;;;;;;5049919;28;20432;-61
2022/02/24 09:41:55;;;;;;;6.70;6.20;;;15.80;99.90;;;;;;5050716;28;20447;-61
2022/02/24 09:44:20;;;;;;;6.23;5.73;;;15.40;99.90;;;;;;5049479;28;20220;-61
2022/02/24 09:46:47;;;;;;;5.63;5.13;;;15.00;99.90;;;;;;5050256;28;20418;-61
2022/02/24 09:49:17;;;;;;;6.57;3.97;;;14.70;99.90;;;;;;5049571;28;20218;-61
2022/02/24 09:51:43;;;;;;;5.30;5.00;;;14.20;99.90;;;;;;5050633;28;20443;-61
2022/02/24 09:54:09;;;;;;;4.43;4.13;;;13.70;99.90;;;;;;5063687;28;20464;-60
2022/02/24 09:56:35;;;;;;;3.90;3.63;;;13.50;99.90;;;;;;5059864;28;20942;-60
2022/02/24 09:59:00;;;;;;;4.23;3.93;;;13.30;99.90;;;;;;5047662;28;20264;-60
2022/02/24 10:01:26;;;;;;;7.70;4.00;;;12.90;99.90;;;;;;5059963;28;20266;-60
2022/02/24 10:04:00;;;;;;;4.43;4.00;;;12.90;99.90;;;;;;5053845;28;20186;-61
2022/02/24 10:06:35;;;;;;;4.03;3.53;;;12.90;99.90;;;;;;5061756;28;20232;-61
2022/02/24 10:09:02;;;;;;;3.57;3.37;;;12.90;99.90;;;;;;5061939;28;20458;-60
2022/02/24 10:11:28;;;;;;;3.93;3.63;;;12.70;99.90;;;;;;5050503;28;20419;-60
2022/02/24 10:14:07;;;;;;;5.83;3.80;;;12.90;99.90;;;;;;5048695;28;20429;-60
2022/02/24 10:17:01;;;;;;;3.60;3.40;;;12.90;99.90;;;;;;5053575;28;20263;-60
2022/02/24 10:19:37;;;;;;;4.13;3.70;;;12.60;99.90;;;;;;5052837;28;20437;-61
2022/02/24 10:22:09;;;;;;;4.00;3.80;;;12.80;99.90;;;;;;5039419;28;20512;-61
2022/02/24 10:24:35;;;;;;;3.80;3.60;;;13.10;99.90;;;;;;5062406;28;20439;-61
2022/02/24 10:27:22;;;;;;;3.43;3.23;;;13.40;99.90;;;;;;5069663;28;20909;-61
2022/02/24 10:30:06;;;;;;;4.27;3.97;;;13.20;99.90;;;;;;5052407;28;20803;-61
2022/02/24 10:32:38;;;;;;;4.00;3.70;;;12.90;99.90;;;;;;5069365;28;20473;-60
2022/02/24 10:35:30;;;;;;;4.40;4.10;;;12.90;99.90;;;;;;5048701;28;20458;-61
2022/02/24 10:38:08;;;;;;;4.17;3.87;;;12.60;99.90;;;;;;5049302;28;20416;-61
2022/02/24 10:40:39;;;;;;;4.00;3.70;;;12.30;99.90;;;;;;5045573;28;20436;-61
2022/02/24 10:43:15;;;;;;;4.20;4.00;;;12.10;99.90;;;;;;5049720;28;20393;-61
2022/02/24 10:45:43;;;;;;;4.23;3.93;;;12.10;99.90;;;;;;5047832;28;20416;-60
2022/02/24 10:48:09;;;;;;;4.63;4.27;;;12.10;99.90;;;;;;5049437;28;20412;-59
2022/02/24 10:51:00;;;;;;;4.50;4.20;;;12.30;99.90;;;;;;5044607;28;20517;-60
2022/02/24 10:53:29;;;;;;;4.07;3.80;;;12.20;99.90;;;;;;5049856;28;20474;-59
2022/02/24 10:56:09;;;;;;;3.80;3.60;;;12.30;99.90;;;;;;5060924;28;20431;-61
2022/02/24 10:58:39;;;;;;;3.87;3.67;;;12.50;99.90;;;;;;5055710;28;20413;-60
2022/02/24 11:01:14;;;;;;;3.97;3.77;;;12.80;99.90;;;;;;5063622;28;20970;-60
2022/02/24 11:03:42;;;;;;;3.90;3.60;;;12.80;99.90;;;;;;5069349;28;20866;-59
2022/02/24 11:06:10;;;;;;;4.20;4.00;;;12.60;99.90;;;;;;5064605;28;20432;-60
2022/02/24 11:08:36;;;;;;;3.83;3.60;;;12.80;99.90;;;;;;5056218;28;21085;-60
2022/02/24 11:11:03;;;;;;;4.00;3.70;;;12.70;99.90;;;;;;5063174;28;20432;-59
2022/02/24 11:13:30;;;;;;;4.13;3.90;;;12.80;99.90;;;;;;5057139;28;20820;-63
2022/02/24 11:15:57;;;;;;;3.97;3.77;;;12.80;99.90;;;;;;5047874;28;20440;-61
2022/02/24 11:18:24;;;;;;;4.10;3.80;;;12.90;99.90;;;;;;5046873;28;20423;-61
2022/02/24 11:20:50;;;;;;;3.90;3.60;;;13.30;99.90;;;;;;5061433;28;20510;-61
2022/02/24 11:23:16;;;;;;;4.27;3.93;;;13.30;99.90;;;;;;5051644;28;20435;-61
2022/02/24 11:25:58;;;;;;;4.77;4.47;;;13.40;99.90;;;;;;5052845;28;21130;-60
2022/02/24 11:28:27;;;;;;;4.03;3.83;;;13.30;99.90;;;;;;5060661;28;20237;-61
2022/02/24 11:31:00;;;;;;;4.47;3.87;;;13.30;99.90;;;;;;5044874;28;20908;-61
2022/02/24 11:33:28;;;;;;;4.00;3.70;;;13.40;99.90;;;;;;5050491;28;20442;-61
2022/02/24 11:36:07;;;;;;;3.93;3.73;;;13.70;99.90;;;;;;5072996;28;20447;-61
2022/02/24 11:38:33;;;;;;;4.20;3.80;;;13.60;99.90;;;;;;5065095;28;20427;-60
2022/02/24 11:41:04;;;;;;;4.27;3.97;;;13.60;99.90;;;;;;5052652;28;20416;-61
2022/02/24 11:43:29;;;;;;;4.17;3.87;;;13.70;99.90;;;;;;5052094;28;20186;-61
2022/02/24 11:45:57;;;;;;;3.90;3.70;;;13.40;99.90;;;;;;5037479;28;20461;-61
2022/02/24 11:48:24;;;;;;;4.27;3.97;;;13.50;99.90;;;;;;5032832;28;20190;-60
2022/02/24 11:50:55;;;;;;;3.93;3.63;;;13.30;99.90;;;;;;5039344;28;20421;-61
2022/02/24 11:53:27;;;;;;;4.43;4.00;;;13.50;99.90;;;;;;5046076;28;21332;-61
2022/02/24 11:56:00;;;;;;;4.27;4.03;;;13.10;99.90;;;;;;5046156;28;20452;-61
2022/02/24 11:58:39;;;;;;;4.20;3.90;;;12.70;99.90;;;;;;5051083;28;20423;-61
2022/02/24 12:01:22;;;;;;;4.47;4.10;;;12.50;99.90;;;;;;5050892;28;20409;-61
2022/02/24 12:03:48;;;;;;;3.97;3.70;;;12.30;99.90;;;;;;5050878;28;20421;-60
2022/02/24 12:06:18;;;;;;;7.13;6.07;;;12.40;99.90;;;;;;5050895;28;20419;-61
2022/02/24 12:09:02;;;;;;;4.60;4.20;;;12.20;99.90;;;;;;5047867;28;20676;-61
2022/02/24 12:11:39;;;;;;;4.37;3.97;;;12.10;99.90;;;;;;5049245;28;20424;-61
2022/02/24 12:14:27;;;;;;;4.10;3.77;;;12.10;99.90;;;;;;5039521;28;20785;-61
2022/02/24 12:17:05;;;;;;;3.80;3.57;;;12.00;99.90;;;;;;5051604;28;20420;-61
2022/02/24 12:19:50;;;;;;;4.37;4.07;;;12.00;99.90;;;;;;5047896;28;20458;-59
2022/02/24 12:22:15;;;;;;;3.70;3.50;;;12.00;99.90;;;;;;5050676;28;20509;-60
2022/02/24 12:24:44;;;;;;;3.93;3.73;;;12.10;99.90;;;;;;5052907;28;20503;-60
2022/02/24 12:27:33;;;;;;;4.30;3.90;;;12.00;99.90;;;;;;5036140;28;20211;-60
2022/02/24 12:30:17;;;;;;;4.33;4.03;;;12.20;99.90;;;;;;5031267;28;20488;-61
2022/02/24 12:32:47;;;;;;;4.33;4.13;;;12.20;99.90;;;;;;5031563;28;20446;-60
2022/02/24 12:35:15;;;;;;;4.30;3.90;;;12.20;99.90;;;;;;5030643;28;21123;-60
2022/02/24 12:37:43;;;;;;;4.63;4.23;;;12.20;99.90;;;;;;5029326;28;20453;-60
2022/02/24 12:40:13;;;;;;;4.10;3.37;;;12.20;99.90;;;;;;5030388;28;20413;-60
2022/02/24 12:42:39;;;;;;;4.00;3.70;;;12.20;99.90;;;;;;5030318;28;20942;-61
2022/02/24 12:45:05;;;;;;;4.30;3.90;;;12.10;99.90;;;;;;5031182;28;20413;-61
2022/02/24 12:47:31;;;;;;;3.70;3.50;;;12.10;99.90;;;;;;5032322;28;20546;-61